sensor_id;sensor_type;location;lat;lon;timestamp;P1;durP1;ratioP1;P2;durP2;ratioP2
71648;SDS011;59492;45.638;11.714;2023-04-28T00:01:59;2.80;;;1.60;;
71648;SDS011;59492;45.638;11.714;2023-04-28T00:04:26;2.90;;;1.90;;
71648;SDS011;59492;45.638;11.714;2023-04-28T00:06:51;2.50;;;1.40;;
71648;SDS011;59492;45.638;11.714;2023-04-28T00:09:17;3.00;;;1.70;;
71648;SDS011;59492;45.638;11.714;2023-04-28T00:11:45;2.30;;;1.70;;
71648;SDS011;59492;45.638;11.714;2023-04-28T00:14:11;1.70;;;1.50;;
71648;SDS011;59492;45.638;11.714;2023-04-28T00:16:37;3.40;;;1.70;;
71648;SDS011;59492;45.638;11.714;2023-04-28T00:19:03;2.30;;;1.60;;
71648;SDS011;59492;45.638;11.714;2023-04-28T00:21:28;2.90;;;1.80;;
71648;SDS011;59492;45.638;11.714;2023-04-28T00:23:54;2.10;;;1.50;;
71648;SDS011;59492;45.638;11.714;2023-04-28T00:26:20;2.50;;;1.70;;
71648;SDS011;59492;45.638;11.714;2023-04-28T00:28:45;2.30;;;1.90;;
71648;SDS011;59492;45.638;11.714;2023-04-28T00:31:12;4.50;;;1.70;;
71648;SDS011;59492;45.638;11.714;2023-04-28T00:33:38;2.00;;;1.60;;
71648;SDS011;59492;45.638;11.714;2023-04-28T00:36:05;2.40;;;1.60;;
71648;SDS011;59492;45.638;11.714;2023-04-28T00:38:31;3.20;;;1.70;;
71648;SDS011;59492;45.638;11.714;2023-04-28T00:40:56;2.20;;;1.70;;
71648;SDS011;59492;45.638;11.714;2023-04-28T00:43:22;1.90;;;1.70;;
71648;SDS011;59492;45.638;11.714;2023-04-28T00:45:48;3.10;;;1.80;;
71648;SDS011;59492;45.638;11.714;2023-04-28T00:48:14;1.70;;;1.50;;
71648;SDS011;59492;45.638;11.714;2023-04-28T00:50:41;2.30;;;1.70;;
71648;SDS011;59492;45.638;11.714;2023-04-28T00:53:07;2.60;;;1.90;;
71648;SDS011;59492;45.638;11.714;2023-04-28T00:55:34;2.30;;;1.60;;
71648;SDS011;59492;45.638;11.714;2023-04-28T00:58:02;3.00;;;1.70;;
71648;SDS011;59492;45.638;11.714;2023-04-28T01:00:29;3.40;;;2.00;;
71648;SDS011;59492;45.638;11.714;2023-04-28T01:02:54;2.10;;;1.40;;
71648;SDS011;59492;45.638;11.714;2023-04-28T01:05:21;3.20;;;1.60;;
71648;SDS011;59492;45.638;11.714;2023-04-28T01:07:49;3.90;;;1.90;;
71648;SDS011;59492;45.638;11.714;2023-04-28T01:10:15;3.00;;;1.80;;
71648;SDS011;59492;45.638;11.714;2023-04-28T01:12:40;2.70;;;1.70;;
71648;SDS011;59492;45.638;11.714;2023-04-28T01:15:06;1.90;;;1.60;;
71648;SDS011;59492;45.638;11.714;2023-04-28T01:17:34;3.60;;;1.40;;
71648;SDS011;59492;45.638;11.714;2023-04-28T01:19:59;2.30;;;1.70;;
71648;SDS011;59492;45.638;11.714;2023-04-28T01:22:25;3.40;;;1.90;;
71648;SDS011;59492;45.638;11.714;2023-04-28T01:24:50;2.70;;;1.90;;
71648;SDS011;59492;45.638;11.714;2023-04-28T01:27:16;2.50;;;1.70;;
71648;SDS011;59492;45.638;11.714;2023-04-28T01:29:41;2.70;;;1.60;;
71648;SDS011;59492;45.638;11.714;2023-04-28T01:32:07;2.70;;;1.80;;
71648;SDS011;59492;45.638;11.714;2023-04-28T01:34:32;1.80;;;1.60;;
71648;SDS011;59492;45.638;11.714;2023-04-28T01:36:58;2.50;;;1.60;;
71648;SDS011;59492;45.638;11.714;2023-04-28T01:39:23;3.90;;;2.20;;
71648;SDS011;59492;45.638;11.714;2023-04-28T01:41:49;2.80;;;1.90;;
71648;SDS011;59492;45.638;11.714;2023-04-28T01:44:15;2.30;;;1.80;;
71648;SDS011;59492;45.638;11.714;2023-04-28T01:46:40;4.40;;;2.00;;
71648;SDS011;59492;45.638;11.714;2023-04-28T01:49:06;3.20;;;1.90;;
71648;SDS011;59492;45.638;11.714;2023-04-28T01:51:31;3.80;;;1.90;;
71648;SDS011;59492;45.638;11.714;2023-04-28T01:53:57;3.20;;;1.90;;
71648;SDS011;59492;45.638;11.714;2023-04-28T01:56:22;2.10;;;1.60;;
71648;SDS011;59492;45.638;11.714;2023-04-28T01:58:48;2.30;;;1.70;;
71648;SDS011;59492;45.638;11.714;2023-04-28T02:01:13;2.90;;;1.60;;
71648;SDS011;59492;45.638;11.714;2023-04-28T02:03:39;2.20;;;1.90;;
71648;SDS011;59492;45.638;11.714;2023-04-28T02:06:04;1.80;;;1.40;;
71648;SDS011;59492;45.638;11.714;2023-04-28T02:08:30;2.00;;;1.50;;
71648;SDS011;59492;45.638;11.714;2023-04-28T02:10:55;2.40;;;1.90;;
71648;SDS011;59492;45.638;11.714;2023-04-28T02:13:22;3.10;;;1.60;;
71648;SDS011;59492;45.638;11.714;2023-04-28T02:15:48;2.80;;;1.70;;
71648;SDS011;59492;45.638;11.714;2023-04-28T02:18:13;2.60;;;1.70;;
71648;SDS011;59492;45.638;11.714;2023-04-28T02:20:39;2.30;;;1.70;;
71648;SDS011;59492;45.638;11.714;2023-04-28T02:23:05;1.90;;;1.60;;
71648;SDS011;59492;45.638;11.714;2023-04-28T02:25:30;2.20;;;1.60;;
71648;SDS011;59492;45.638;11.714;2023-04-28T02:27:56;2.10;;;1.80;;
71648;SDS011;59492;45.638;11.714;2023-04-28T02:30:21;2.50;;;1.80;;
71648;SDS011;59492;45.638;11.714;2023-04-28T02:32:47;2.20;;;1.90;;
71648;SDS011;59492;45.638;11.714;2023-04-28T02:35:13;2.40;;;1.80;;
71648;SDS011;59492;45.638;11.714;2023-04-28T02:37:38;1.90;;;1.60;;
71648;SDS011;59492;45.638;11.714;2023-04-28T02:40:04;3.50;;;2.00;;
71648;SDS011;59492;45.638;11.714;2023-04-28T02:42:31;2.10;;;1.50;;
71648;SDS011;59492;45.638;11.714;2023-04-28T02:44:56;3.70;;;1.80;;
71648;SDS011;59492;45.638;11.714;2023-04-28T02:47:22;2.10;;;1.70;;
71648;SDS011;59492;45.638;11.714;2023-04-28T02:49:47;1.90;;;1.60;;
71648;SDS011;59492;45.638;11.714;2023-04-28T02:52:13;1.90;;;1.60;;
71648;SDS011;59492;45.638;11.714;2023-04-28T02:54:38;1.70;;;1.50;;
71648;SDS011;59492;45.638;11.714;2023-04-28T02:57:05;2.70;;;1.70;;
71648;SDS011;59492;45.638;11.714;2023-04-28T02:59:31;2.50;;;1.90;;
71648;SDS011;59492;45.638;11.714;2023-04-28T03:01:56;2.30;;;1.80;;
71648;SDS011;59492;45.638;11.714;2023-04-28T03:04:22;2.20;;;1.80;;
71648;SDS011;59492;45.638;11.714;2023-04-28T03:06:47;2.40;;;2.00;;
71648;SDS011;59492;45.638;11.714;2023-04-28T03:09:14;2.20;;;1.50;;
71648;SDS011;59492;45.638;11.714;2023-04-28T03:11:40;2.20;;;1.80;;
71648;SDS011;59492;45.638;11.714;2023-04-28T03:14:05;3.50;;;2.10;;
71648;SDS011;59492;45.638;11.714;2023-04-28T03:16:31;3.20;;;1.70;;
71648;SDS011;59492;45.638;11.714;2023-04-28T03:18:57;1.90;;;1.60;;
71648;SDS011;59492;45.638;11.714;2023-04-28T03:21:23;2.80;;;1.70;;
71648;SDS011;59492;45.638;11.714;2023-04-28T03:23:50;2.80;;;1.60;;
71648;SDS011;59492;45.638;11.714;2023-04-28T03:26:16;2.50;;;1.50;;
71648;SDS011;59492;45.638;11.714;2023-04-28T03:28:41;1.60;;;1.50;;
71648;SDS011;59492;45.638;11.714;2023-04-28T03:31:07;1.60;;;1.50;;
71648;SDS011;59492;45.638;11.714;2023-04-28T03:33:32;2.60;;;1.80;;
71648;SDS011;59492;45.638;11.714;2023-04-28T03:35:58;3.30;;;1.80;;
71648;SDS011;59492;45.638;11.714;2023-04-28T03:38:23;2.70;;;1.80;;
71648;SDS011;59492;45.638;11.714;2023-04-28T03:40:49;1.80;;;1.70;;
71648;SDS011;59492;45.638;11.714;2023-04-28T03:43:15;2.80;;;1.70;;
71648;SDS011;59492;45.638;11.714;2023-04-28T03:45:41;3.00;;;1.50;;
71648;SDS011;59492;45.638;11.714;2023-04-28T03:48:06;2.40;;;1.80;;
71648;SDS011;59492;45.638;11.714;2023-04-28T03:50:32;1.70;;;1.60;;
71648;SDS011;59492;45.638;11.714;2023-04-28T03:52:57;1.80;;;1.60;;
71648;SDS011;59492;45.638;11.714;2023-04-28T03:55:23;2.10;;;1.80;;
71648;SDS011;59492;45.638;11.714;2023-04-28T03:57:50;1.90;;;1.70;;
71648;SDS011;59492;45.638;11.714;2023-04-28T04:00:16;2.40;;;1.70;;
71648;SDS011;59492;45.638;11.714;2023-04-28T04:02:41;3.50;;;1.70;;
71648;SDS011;59492;45.638;11.714;2023-04-28T04:05:07;1.70;;;1.60;;
71648;SDS011;59492;45.638;11.714;2023-04-28T04:07:33;1.60;;;1.50;;
71648;SDS011;59492;45.638;11.714;2023-04-28T04:09:58;2.10;;;1.60;;
71648;SDS011;59492;45.638;11.714;2023-04-28T04:12:24;1.90;;;1.50;;
71648;SDS011;59492;45.638;11.714;2023-04-28T04:14:49;2.20;;;1.60;;
71648;SDS011;59492;45.638;11.714;2023-04-28T04:17:15;2.00;;;1.70;;
71648;SDS011;59492;45.638;11.714;2023-04-28T04:19:40;3.30;;;1.70;;
71648;SDS011;59492;45.638;11.714;2023-04-28T04:22:06;2.10;;;1.60;;
71648;SDS011;59492;45.638;11.714;2023-04-28T04:24:32;2.00;;;1.50;;
71648;SDS011;59492;45.638;11.714;2023-04-28T04:26:57;2.40;;;1.60;;
71648;SDS011;59492;45.638;11.714;2023-04-28T04:29:23;3.10;;;1.70;;
71648;SDS011;59492;45.638;11.714;2023-04-28T04:31:48;1.90;;;1.70;;
71648;SDS011;59492;45.638;11.714;2023-04-28T04:34:14;2.40;;;1.60;;
71648;SDS011;59492;45.638;11.714;2023-04-28T04:36:39;2.90;;;1.90;;
71648;SDS011;59492;45.638;11.714;2023-04-28T04:39:05;2.00;;;1.60;;
71648;SDS011;59492;45.638;11.714;2023-04-28T04:41:31;2.20;;;1.70;;
71648;SDS011;59492;45.638;11.714;2023-04-28T04:43:56;2.00;;;1.80;;
71648;SDS011;59492;45.638;11.714;2023-04-28T04:46:22;2.60;;;1.60;;
71648;SDS011;59492;45.638;11.714;2023-04-28T04:48:47;2.00;;;1.80;;
71648;SDS011;59492;45.638;11.714;2023-04-28T04:51:13;2.70;;;1.50;;
71648;SDS011;59492;45.638;11.714;2023-04-28T04:53:39;2.40;;;1.50;;
71648;SDS011;59492;45.638;11.714;2023-04-28T04:56:04;1.50;;;1.40;;
71648;SDS011;59492;45.638;11.714;2023-04-28T04:58:30;2.10;;;1.60;;
71648;SDS011;59492;45.638;11.714;2023-04-28T05:00:55;1.80;;;1.50;;
71648;SDS011;59492;45.638;11.714;2023-04-28T05:03:21;4.30;;;1.50;;
71648;SDS011;59492;45.638;11.714;2023-04-28T05:05:47;2.30;;;1.80;;
71648;SDS011;59492;45.638;11.714;2023-04-28T05:08:12;2.80;;;1.70;;
71648;SDS011;59492;45.638;11.714;2023-04-28T05:10:38;3.00;;;1.80;;
71648;SDS011;59492;45.638;11.714;2023-04-28T05:13:04;2.30;;;1.50;;
71648;SDS011;59492;45.638;11.714;2023-04-28T05:15:29;2.30;;;1.50;;
71648;SDS011;59492;45.638;11.714;2023-04-28T05:17:55;1.60;;;1.40;;
71648;SDS011;59492;45.638;11.714;2023-04-28T05:20:21;2.90;;;1.80;;
71648;SDS011;59492;45.638;11.714;2023-04-28T05:22:47;1.60;;;1.40;;
71648;SDS011;59492;45.638;11.714;2023-04-28T05:25:13;2.30;;;1.70;;
71648;SDS011;59492;45.638;11.714;2023-04-28T05:27:38;1.80;;;1.50;;
71648;SDS011;59492;45.638;11.714;2023-04-28T05:30:06;1.50;;;1.40;;
71648;SDS011;59492;45.638;11.714;2023-04-28T05:32:32;1.60;;;1.40;;
71648;SDS011;59492;45.638;11.714;2023-04-28T05:34:58;1.60;;;1.40;;
71648;SDS011;59492;45.638;11.714;2023-04-28T05:37:24;1.70;;;1.30;;
71648;SDS011;59492;45.638;11.714;2023-04-28T05:39:49;2.10;;;1.80;;
71648;SDS011;59492;45.638;11.714;2023-04-28T05:42:15;1.60;;;1.50;;
71648;SDS011;59492;45.638;11.714;2023-04-28T05:44:40;2.60;;;1.80;;
71648;SDS011;59492;45.638;11.714;2023-04-28T05:47:06;1.70;;;1.60;;
71648;SDS011;59492;45.638;11.714;2023-04-28T05:49:31;2.10;;;1.80;;
71648;SDS011;59492;45.638;11.714;2023-04-28T05:51:57;1.70;;;1.60;;
71648;SDS011;59492;45.638;11.714;2023-04-28T05:54:22;1.70;;;1.50;;
71648;SDS011;59492;45.638;11.714;2023-04-28T05:56:48;1.70;;;1.60;;
71648;SDS011;59492;45.638;11.714;2023-04-28T05:59:14;1.90;;;1.60;;
71648;SDS011;59492;45.638;11.714;2023-04-28T06:01:39;1.70;;;1.60;;
71648;SDS011;59492;45.638;11.714;2023-04-28T06:04:05;2.10;;;1.40;;
71648;SDS011;59492;45.638;11.714;2023-04-28T06:06:30;2.30;;;1.70;;
71648;SDS011;59492;45.638;11.714;2023-04-28T06:08:58;2.10;;;1.80;;
71648;SDS011;59492;45.638;11.714;2023-04-28T06:11:24;1.80;;;1.40;;
71648;SDS011;59492;45.638;11.714;2023-04-28T06:13:49;2.10;;;1.60;;
71648;SDS011;59492;45.638;11.714;2023-04-28T06:16:15;1.60;;;1.40;;
71648;SDS011;59492;45.638;11.714;2023-04-28T06:18:42;1.90;;;1.60;;
71648;SDS011;59492;45.638;11.714;2023-04-28T06:21:07;1.90;;;1.60;;
71648;SDS011;59492;45.638;11.714;2023-04-28T06:23:33;2.30;;;1.70;;
71648;SDS011;59492;45.638;11.714;2023-04-28T06:25:59;1.80;;;1.70;;
71648;SDS011;59492;45.638;11.714;2023-04-28T06:28:25;1.70;;;1.60;;
71648;SDS011;59492;45.638;11.714;2023-04-28T06:30:50;1.80;;;1.40;;
71648;SDS011;59492;45.638;11.714;2023-04-28T06:33:16;2.60;;;1.40;;
71648;SDS011;59492;45.638;11.714;2023-04-28T06:35:41;1.90;;;1.70;;
71648;SDS011;59492;45.638;11.714;2023-04-28T06:38:07;2.20;;;1.70;;
71648;SDS011;59492;45.638;11.714;2023-04-28T06:40:33;2.80;;;1.80;;
71648;SDS011;59492;45.638;11.714;2023-04-28T06:42:58;1.90;;;1.70;;
71648;SDS011;59492;45.638;11.714;2023-04-28T06:45:24;2.50;;;1.50;;
71648;SDS011;59492;45.638;11.714;2023-04-28T06:47:49;4.10;;;1.70;;
71648;SDS011;59492;45.638;11.714;2023-04-28T06:50:15;3.10;;;1.80;;
71648;SDS011;59492;45.638;11.714;2023-04-28T06:52:41;2.10;;;1.40;;
71648;SDS011;59492;45.638;11.714;2023-04-28T06:55:07;4.20;;;1.80;;
71648;SDS011;59492;45.638;11.714;2023-04-28T06:57:35;4.80;;;2.00;;
71648;SDS011;59492;45.638;11.714;2023-04-28T07:00:02;3.10;;;1.70;;
71648;SDS011;59492;45.638;11.714;2023-04-28T07:02:30;2.40;;;1.90;;
71648;SDS011;59492;45.638;11.714;2023-04-28T07:05:06;6.70;;;2.00;;
71648;SDS011;59492;45.638;11.714;2023-04-28T07:07:33;4.50;;;2.20;;
71648;SDS011;59492;45.638;11.714;2023-04-28T07:09:58;4.60;;;2.20;;
71648;SDS011;59492;45.638;11.714;2023-04-28T07:12:25;5.50;;;2.10;;
71648;SDS011;59492;45.638;11.714;2023-04-28T07:14:51;6.60;;;2.40;;
71648;SDS011;59492;45.638;11.714;2023-04-28T07:17:17;3.60;;;1.70;;
71648;SDS011;59492;45.638;11.714;2023-04-28T07:19:43;3.20;;;1.80;;
71648;SDS011;59492;45.638;11.714;2023-04-28T07:22:08;2.40;;;1.80;;
71648;SDS011;59492;45.638;11.714;2023-04-28T07:24:34;2.90;;;2.00;;
71648;SDS011;59492;45.638;11.714;2023-04-28T07:27:00;4.30;;;2.00;;
71648;SDS011;59492;45.638;11.714;2023-04-28T07:29:28;3.90;;;1.80;;
71648;SDS011;59492;45.638;11.714;2023-04-28T07:31:58;2.90;;;1.70;;
71648;SDS011;59492;45.638;11.714;2023-04-28T07:34:25;3.90;;;1.90;;
71648;SDS011;59492;45.638;11.714;2023-04-28T07:36:53;4.90;;;2.10;;
71648;SDS011;59492;45.638;11.714;2023-04-28T07:39:20;5.40;;;1.90;;
71648;SDS011;59492;45.638;11.714;2023-04-28T07:44:22;2.40;;;1.70;;
71648;SDS011;59492;45.638;11.714;2023-04-28T07:46:50;9.40;;;1.90;;
71648;SDS011;59492;45.638;11.714;2023-04-28T07:49:17;4.00;;;1.90;;
71648;SDS011;59492;45.638;11.714;2023-04-28T07:51:43;9.70;;;2.10;;
71648;SDS011;59492;45.638;11.714;2023-04-28T07:54:08;6.20;;;2.00;;
71648;SDS011;59492;45.638;11.714;2023-04-28T07:56:34;3.50;;;2.40;;
71648;SDS011;59492;45.638;11.714;2023-04-28T07:59:00;3.80;;;1.90;;
71648;SDS011;59492;45.638;11.714;2023-04-28T08:01:25;3.60;;;2.00;;
71648;SDS011;59492;45.638;11.714;2023-04-28T08:03:51;5.40;;;1.90;;
71648;SDS011;59492;45.638;11.714;2023-04-28T08:06:17;7.00;;;2.20;;
71648;SDS011;59492;45.638;11.714;2023-04-28T08:08:50;3.20;;;1.90;;
71648;SDS011;59492;45.638;11.714;2023-04-28T08:11:15;3.10;;;1.70;;
71648;SDS011;59492;45.638;11.714;2023-04-28T08:13:41;4.50;;;2.30;;
71648;SDS011;59492;45.638;11.714;2023-04-28T08:16:06;3.10;;;2.00;;
71648;SDS011;59492;45.638;11.714;2023-04-28T08:18:32;5.30;;;2.10;;
71648;SDS011;59492;45.638;11.714;2023-04-28T08:20:58;5.40;;;1.90;;
71648;SDS011;59492;45.638;11.714;2023-04-28T08:23:23;3.60;;;2.00;;
71648;SDS011;59492;45.638;11.714;2023-04-28T08:25:52;5.90;;;2.20;;
71648;SDS011;59492;45.638;11.714;2023-04-28T08:28:18;2.70;;;1.80;;
71648;SDS011;59492;45.638;11.714;2023-04-28T08:30:44;5.20;;;2.00;;
71648;SDS011;59492;45.638;11.714;2023-04-28T08:33:09;3.90;;;2.00;;
71648;SDS011;59492;45.638;11.714;2023-04-28T08:35:35;5.10;;;2.30;;
71648;SDS011;59492;45.638;11.714;2023-04-28T08:38:00;3.30;;;2.20;;
71648;SDS011;59492;45.638;11.714;2023-04-28T08:40:26;6.20;;;1.80;;
71648;SDS011;59492;45.638;11.714;2023-04-28T08:42:54;6.50;;;2.40;;
71648;SDS011;59492;45.638;11.714;2023-04-28T08:45:19;6.10;;;2.10;;
71648;SDS011;59492;45.638;11.714;2023-04-28T08:47:46;4.10;;;2.50;;
71648;SDS011;59492;45.638;11.714;2023-04-28T08:50:13;4.40;;;2.00;;
71648;SDS011;59492;45.638;11.714;2023-04-28T08:52:40;4.80;;;2.00;;
71648;SDS011;59492;45.638;11.714;2023-04-28T08:55:10;5.20;;;1.80;;
71648;SDS011;59492;45.638;11.714;2023-04-28T08:57:43;6.60;;;2.50;;
71648;SDS011;59492;45.638;11.714;2023-04-28T09:00:16;3.20;;;1.90;;
71648;SDS011;59492;45.638;11.714;2023-04-28T09:02:42;3.50;;;2.00;;
71648;SDS011;59492;45.638;11.714;2023-04-28T09:05:08;3.80;;;2.10;;
71648;SDS011;59492;45.638;11.714;2023-04-28T09:07:34;6.50;;;2.50;;
71648;SDS011;59492;45.638;11.714;2023-04-28T09:12:46;7.30;;;2.60;;
71648;SDS011;59492;45.638;11.714;2023-04-28T09:15:31;3.30;;;2.00;;
71648;SDS011;59492;45.638;11.714;2023-04-28T09:17:56;7.30;;;2.70;;
71648;SDS011;59492;45.638;11.714;2023-04-28T09:20:23;4.90;;;2.60;;
71648;SDS011;59492;45.638;11.714;2023-04-28T09:22:51;6.00;;;2.50;;
71648;SDS011;59492;45.638;11.714;2023-04-28T09:25:18;10.70;;;2.50;;
71648;SDS011;59492;45.638;11.714;2023-04-28T09:27:46;6.90;;;2.50;;
71648;SDS011;59492;45.638;11.714;2023-04-28T09:30:11;4.00;;;2.50;;
71648;SDS011;59492;45.638;11.714;2023-04-28T09:32:38;5.10;;;2.30;;
71648;SDS011;59492;45.638;11.714;2023-04-28T09:35:07;6.40;;;2.50;;
71648;SDS011;59492;45.638;11.714;2023-04-28T09:37:33;3.80;;;2.20;;
71648;SDS011;59492;45.638;11.714;2023-04-28T09:40:08;6.80;;;2.90;;
71648;SDS011;59492;45.638;11.714;2023-04-28T09:42:41;4.90;;;2.50;;
71648;SDS011;59492;45.638;11.714;2023-04-28T09:45:09;4.10;;;2.50;;
71648;SDS011;59492;45.638;11.714;2023-04-28T09:47:37;8.50;;;2.50;;
71648;SDS011;59492;45.638;11.714;2023-04-28T09:50:06;6.00;;;2.50;;
71648;SDS011;59492;45.638;11.714;2023-04-28T09:52:38;4.50;;;2.70;;
71648;SDS011;59492;45.638;11.714;2023-04-28T09:55:05;5.80;;;2.80;;
71648;SDS011;59492;45.638;11.714;2023-04-28T09:57:36;4.40;;;2.60;;
71648;SDS011;59492;45.638;11.714;2023-04-28T10:00:03;7.80;;;3.10;;
71648;SDS011;59492;45.638;11.714;2023-04-28T10:02:30;8.00;;;3.50;;
71648;SDS011;59492;45.638;11.714;2023-04-28T10:04:57;4.80;;;2.90;;
71648;SDS011;59492;45.638;11.714;2023-04-28T10:07:24;3.70;;;2.70;;
71648;SDS011;59492;45.638;11.714;2023-04-28T10:09:53;7.90;;;3.10;;
71648;SDS011;59492;45.638;11.714;2023-04-28T10:12:24;5.70;;;2.90;;
71648;SDS011;59492;45.638;11.714;2023-04-28T10:14:51;7.60;;;3.00;;
71648;SDS011;59492;45.638;11.714;2023-04-28T10:17:19;7.60;;;3.10;;
71648;SDS011;59492;45.638;11.714;2023-04-28T10:19:46;6.30;;;2.90;;
71648;SDS011;59492;45.638;11.714;2023-04-28T10:22:28;6.80;;;2.90;;
71648;SDS011;59492;45.638;11.714;2023-04-28T10:27:58;7.30;;;3.20;;
71648;SDS011;59492;45.638;11.714;2023-04-28T10:30:25;4.60;;;3.10;;
71648;SDS011;59492;45.638;11.714;2023-04-28T10:40:42;5.20;;;3.00;;
71648;SDS011;59492;45.638;11.714;2023-04-28T10:43:09;5.20;;;3.30;;
71648;SDS011;59492;45.638;11.714;2023-04-28T10:48:17;6.30;;;3.20;;
71648;SDS011;59492;45.638;11.714;2023-04-28T10:54:13;7.20;;;3.00;;
71648;SDS011;59492;45.638;11.714;2023-04-28T10:56:17;6.50;;;3.50;;
71648;SDS011;59492;45.638;11.714;2023-04-28T10:58:48;5.00;;;3.30;;
71648;SDS011;59492;45.638;11.714;2023-04-28T11:06:19;4.20;;;3.00;;
71648;SDS011;59492;45.638;11.714;2023-04-28T11:08:48;4.20;;;2.60;;
71648;SDS011;59492;45.638;11.714;2023-04-28T11:11:15;3.90;;;2.90;;
71648;SDS011;59492;45.638;11.714;2023-04-28T11:13:42;3.90;;;2.90;;
71648;SDS011;59492;45.638;11.714;2023-04-28T11:16:13;5.20;;;3.40;;
71648;SDS011;59492;45.638;11.714;2023-04-28T11:18:55;4.80;;;3.30;;
71648;SDS011;59492;45.638;11.714;2023-04-28T11:21:30;6.70;;;2.80;;
71648;SDS011;59492;45.638;11.714;2023-04-28T11:23:56;5.80;;;3.10;;
71648;SDS011;59492;45.638;11.714;2023-04-28T11:26:23;5.00;;;3.00;;
71648;SDS011;59492;45.638;11.714;2023-04-28T11:28:49;5.40;;;3.00;;
71648;SDS011;59492;45.638;11.714;2023-04-28T11:31:18;4.40;;;3.00;;
71648;SDS011;59492;45.638;11.714;2023-04-28T11:33:49;8.30;;;3.30;;
71648;SDS011;59492;45.638;11.714;2023-04-28T11:36:23;3.60;;;3.10;;
71648;SDS011;59492;45.638;11.714;2023-04-28T11:38:50;6.10;;;2.80;;
71648;SDS011;59492;45.638;11.714;2023-04-28T11:41:16;5.20;;;2.90;;
71648;SDS011;59492;45.638;11.714;2023-04-28T11:43:41;4.30;;;2.50;;
71648;SDS011;59492;45.638;11.714;2023-04-28T11:46:07;4.30;;;3.10;;
71648;SDS011;59492;45.638;11.714;2023-04-28T11:48:33;5.10;;;2.80;;
71648;SDS011;59492;45.638;11.714;2023-04-28T11:51:00;4.60;;;2.90;;
71648;SDS011;59492;45.638;11.714;2023-04-28T11:53:44;3.70;;;2.60;;
71648;SDS011;59492;45.638;11.714;2023-04-28T11:56:10;5.30;;;2.60;;
71648;SDS011;59492;45.638;11.714;2023-04-28T11:58:37;6.90;;;2.80;;
71648;SDS011;59492;45.638;11.714;2023-04-28T12:03:44;4.30;;;2.60;;
71648;SDS011;59492;45.638;11.714;2023-04-28T12:06:11;4.20;;;2.70;;
71648;SDS011;59492;45.638;11.714;2023-04-28T12:08:37;3.90;;;2.40;;
71648;SDS011;59492;45.638;11.714;2023-04-28T12:11:06;4.40;;;2.70;;
71648;SDS011;59492;45.638;11.714;2023-04-28T12:13:33;5.70;;;2.70;;
71648;SDS011;59492;45.638;11.714;2023-04-28T12:16:01;4.70;;;2.50;;
71648;SDS011;59492;45.638;11.714;2023-04-28T12:18:30;5.90;;;3.10;;
71648;SDS011;59492;45.638;11.714;2023-04-28T12:20:56;4.10;;;2.70;;
71648;SDS011;59492;45.638;11.714;2023-04-28T12:23:29;4.00;;;2.50;;
71648;SDS011;59492;45.638;11.714;2023-04-28T12:25:56;4.60;;;2.40;;
71648;SDS011;59492;45.638;11.714;2023-04-28T12:28:22;3.30;;;2.30;;
71648;SDS011;59492;45.638;11.714;2023-04-28T12:30:49;3.00;;;2.30;;
71648;SDS011;59492;45.638;11.714;2023-04-28T12:33:23;4.20;;;2.70;;
71648;SDS011;59492;45.638;11.714;2023-04-28T12:35:50;6.50;;;2.70;;
71648;SDS011;59492;45.638;11.714;2023-04-28T12:38:16;3.90;;;2.20;;
71648;SDS011;59492;45.638;11.714;2023-04-28T12:40:42;3.00;;;2.00;;
71648;SDS011;59492;45.638;11.714;2023-04-28T12:43:08;3.40;;;2.20;;
71648;SDS011;59492;45.638;11.714;2023-04-28T12:45:33;5.80;;;2.10;;
71648;SDS011;59492;45.638;11.714;2023-04-28T12:47:59;3.60;;;2.20;;
71648;SDS011;59492;45.638;11.714;2023-04-28T12:50:25;3.60;;;2.60;;
71648;SDS011;59492;45.638;11.714;2023-04-28T12:52:51;4.90;;;2.40;;
71648;SDS011;59492;45.638;11.714;2023-04-28T12:55:17;2.90;;;2.00;;
71648;SDS011;59492;45.638;11.714;2023-04-28T12:57:42;4.30;;;2.30;;
71648;SDS011;59492;45.638;11.714;2023-04-28T13:00:08;3.40;;;2.40;;
71648;SDS011;59492;45.638;11.714;2023-04-28T13:02:34;3.90;;;2.20;;
71648;SDS011;59492;45.638;11.714;2023-04-28T13:05:00;2.70;;;2.10;;
71648;SDS011;59492;45.638;11.714;2023-04-28T13:07:26;3.20;;;2.20;;
71648;SDS011;59492;45.638;11.714;2023-04-28T13:09:51;3.50;;;2.20;;
71648;SDS011;59492;45.638;11.714;2023-04-28T13:12:17;3.30;;;2.00;;
71648;SDS011;59492;45.638;11.714;2023-04-28T13:14:42;4.80;;;2.20;;
71648;SDS011;59492;45.638;11.714;2023-04-28T13:17:08;2.40;;;2.00;;
71648;SDS011;59492;45.638;11.714;2023-04-28T13:19:34;2.90;;;2.30;;
71648;SDS011;59492;45.638;11.714;2023-04-28T13:22:00;2.20;;;2.00;;
71648;SDS011;59492;45.638;11.714;2023-04-28T13:24:29;3.70;;;2.10;;
71648;SDS011;59492;45.638;11.714;2023-04-28T13:26:54;2.60;;;2.00;;
71648;SDS011;59492;45.638;11.714;2023-04-28T13:29:20;2.90;;;2.10;;
71648;SDS011;59492;45.638;11.714;2023-04-28T13:31:46;2.60;;;1.80;;
71648;SDS011;59492;45.638;11.714;2023-04-28T13:34:12;3.60;;;1.90;;
71648;SDS011;59492;45.638;11.714;2023-04-28T13:36:42;3.30;;;2.30;;
71648;SDS011;59492;45.638;11.714;2023-04-28T13:39:08;2.50;;;2.00;;
71648;SDS011;59492;45.638;11.714;2023-04-28T13:41:40;2.60;;;1.90;;
71648;SDS011;59492;45.638;11.714;2023-04-28T13:44:06;4.30;;;2.30;;
71648;SDS011;59492;45.638;11.714;2023-04-28T13:46:31;3.20;;;2.10;;
71648;SDS011;59492;45.638;11.714;2023-04-28T13:48:57;2.90;;;1.90;;
71648;SDS011;59492;45.638;11.714;2023-04-28T13:51:23;3.50;;;1.90;;
71648;SDS011;59492;45.638;11.714;2023-04-28T13:53:49;2.40;;;1.90;;
71648;SDS011;59492;45.638;11.714;2023-04-28T13:56:14;2.40;;;2.10;;
71648;SDS011;59492;45.638;11.714;2023-04-28T13:58:40;3.00;;;2.00;;
71648;SDS011;59492;45.638;11.714;2023-04-28T14:01:05;2.80;;;2.00;;
71648;SDS011;59492;45.638;11.714;2023-04-28T14:03:32;2.50;;;1.90;;
71648;SDS011;59492;45.638;11.714;2023-04-28T14:05:58;2.10;;;1.80;;
71648;SDS011;59492;45.638;11.714;2023-04-28T14:08:24;2.70;;;1.70;;
71648;SDS011;59492;45.638;11.714;2023-04-28T14:10:50;2.80;;;1.90;;
71648;SDS011;59492;45.638;11.714;2023-04-28T14:13:16;3.40;;;1.80;;
71648;SDS011;59492;45.638;11.714;2023-04-28T14:15:42;2.60;;;2.10;;
71648;SDS011;59492;45.638;11.714;2023-04-28T14:18:09;3.00;;;1.80;;
71648;SDS011;59492;45.638;11.714;2023-04-28T14:20:35;4.20;;;2.10;;
71648;SDS011;59492;45.638;11.714;2023-04-28T14:23:01;2.10;;;1.50;;
71648;SDS011;59492;45.638;11.714;2023-04-28T14:25:27;2.30;;;1.80;;
71648;SDS011;59492;45.638;11.714;2023-04-28T14:27:52;2.70;;;1.90;;
71648;SDS011;59492;45.638;11.714;2023-04-28T14:30:18;2.40;;;1.70;;
71648;SDS011;59492;45.638;11.714;2023-04-28T14:32:45;2.00;;;1.60;;
71648;SDS011;59492;45.638;11.714;2023-04-28T14:35:11;2.00;;;1.70;;
71648;SDS011;59492;45.638;11.714;2023-04-28T14:37:37;2.60;;;1.80;;
71648;SDS011;59492;45.638;11.714;2023-04-28T14:40:04;2.80;;;1.80;;
71648;SDS011;59492;45.638;11.714;2023-04-28T14:42:31;2.40;;;1.70;;
71648;SDS011;59492;45.638;11.714;2023-04-28T14:44:57;2.30;;;1.70;;
71648;SDS011;59492;45.638;11.714;2023-04-28T14:47:23;1.70;;;1.50;;
71648;SDS011;59492;45.638;11.714;2023-04-28T14:49:51;2.20;;;1.70;;
71648;SDS011;59492;45.638;11.714;2023-04-28T14:52:20;2.10;;;1.80;;
71648;SDS011;59492;45.638;11.714;2023-04-28T14:54:50;2.20;;;1.90;;
71648;SDS011;59492;45.638;11.714;2023-04-28T14:57:17;2.00;;;1.60;;
71648;SDS011;59492;45.638;11.714;2023-04-28T14:59:44;2.60;;;1.80;;